Time;durP1;ratioP1;P1;durP2;ratioP2;P2;SDS_P1;SDS_P2;PMS_P1;PMS_P2;Temp;Humidity;BMP_temperature;BMP_pressure;BME280_temperature;BME280_humidity;BME280_pressure;Samples;Min_cycle;Max_cycle;Signal;HPM_P1;HPM_P2
2022/03/31 00:00:44;;;;;;;6.20;1.90;;;;;;;-0.76;42.19;98692.25;4916475;29;20056;-63
2022/03/31 00:03:15;;;;;;;3.75;1.65;;;;;;;-0.77;42.22;98700.75;4915833;29;20051;-64
2022/03/31 00:05:47;;;;;;;4.80;2.25;;;;;;;-0.79;42.38;98692.81;4916467;29;20515;-63
2022/03/31 00:08:17;;;;;;;4.75;1.90;;;;;;;-0.78;42.61;98696.34;4915709;29;20083;-63
2022/03/31 00:10:50;;;;;;;4.27;2.20;;;;;;;-0.81;42.47;98696.91;4916321;29;20048;-64
2022/03/31 00:13:26;;;;;;;5.88;2.22;;;;;;;-0.84;42.55;98689.28;4916053;29;20490;-64
2022/03/31 00:15:56;;;;;;;5.35;2.05;;;;;;;-0.87;42.52;98693.41;4916011;29;20055;-64
2022/03/31 00:18:26;;;;;;;3.33;2.10;;;;;;;-0.85;42.72;98693.13;4916062;29;20059;-64
2022/03/31 00:24:17;;;;;;;4.55;2.03;;;;;;;-0.89;42.70;98692.84;4910114;29;20139;-64
2022/03/31 00:26:44;;;;;;;6.22;1.80;;;;;;;-0.86;42.76;98702.41;4901002;29;20157;-63
2022/03/31 00:29:11;;;;;;;3.70;1.98;;;;;;;-0.86;42.73;98700.47;4916117;29;20066;-63
2022/03/31 00:31:39;;;;;;;5.28;2.45;;;;;;;-0.85;43.04;98709.50;4900316;29;20143;-62
2022/03/31 00:34:06;;;;;;;6.63;2.25;;;;;;;-0.84;43.16;98716.59;4897338;29;20441;-63
2022/03/31 00:36:32;;;;;;;7.28;2.10;;;;;;;-0.84;43.06;98708.38;4914204;29;20067;-63
2022/03/31 00:42:05;;;;;;;7.25;2.00;;;;;;;-0.87;43.63;98701.59;4915506;29;20074;-64
2022/03/31 00:44:32;;;;;;;8.95;2.08;;;;;;;-0.89;43.37;98702.97;4915399;29;20075;-63
2022/03/31 00:46:59;;;;;;;3.80;1.98;;;;;;;-0.91;43.68;98711.44;4915693;29;20048;-63
2022/03/31 00:49:26;;;;;;;6.15;2.78;;;;;;;-0.98;43.88;98701.91;4915429;29;20495;-63
2022/03/31 00:51:54;;;;;;;5.03;2.45;;;;;;;-1.02;43.95;98709.84;4915487;29;20067;-64
2022/03/31 00:54:27;;;;;;;6.57;1.92;;;;;;;-1.02;44.05;98709.84;4915860;29;20044;-62
2022/03/31 00:56:57;;;;;;;4.93;1.92;;;;;;;-0.98;44.34;98710.09;4915092;29;20134;-63
2022/03/31 00:59:25;;;;;;;5.40;2.17;;;;;;;-0.97;44.29;98717.19;4899202;29;20112;-64
2022/03/31 01:01:53;;;;;;;6.07;2.45;;;;;;;-0.98;43.86;98710.09;4915294;29;20055;-63
2022/03/31 01:04:20;;;;;;;3.22;1.88;;;;;;;-1.00;44.35;98713.13;4915578;29;20432;-63
2022/03/31 01:06:47;;;;;;;7.43;2.28;;;;;;;-1.02;44.50;98717.19;4915359;29;20138;-63
2022/03/31 01:09:14;;;;;;;10.10;2.15;;;;;;;-1.06;44.29;98718.84;4915582;29;20423;-63
2022/03/31 01:11:42;;;;;;;3.72;2.15;;;;;;;-1.05;44.72;98723.22;4915348;29;20142;-63
2022/03/31 01:14:09;;;;;;;5.80;2.05;;;;;;;-1.06;44.39;98718.84;4915496;29;20048;-63
2022/03/31 01:16:36;;;;;;;3.47;1.83;;;;;;;-1.04;44.90;98730.31;4915173;29;20064;-63
2022/03/31 01:19:05;;;;;;;5.38;2.70;;;;;;;-1.02;44.72;98719.94;4915693;29;20048;-64
2022/03/31 01:21:43;;;;;;;4.30;1.95;;;;;;;-1.01;44.91;98727.03;4915084;29;20052;-63
2022/03/31 01:24:15;;;;;;;3.65;2.00;;;;;;;-1.05;45.00;98718.56;4899686;29;20068;-63
2022/03/31 01:26:43;;;;;;;3.88;1.92;;;;;;;-1.04;45.15;98717.47;4901747;29;20056;-62
2022/03/31 01:29:10;;;;;;;4.60;1.98;;;;;;;-1.06;45.31;98721.59;4918418;29;20047;-63
2022/03/31 01:31:38;;;;;;;4.35;1.98;;;;;;;-1.09;45.34;98728.44;4918507;29;20115;-63
2022/03/31 01:34:07;;;;;;;3.90;1.85;;;;;;;-1.07;45.19;98728.16;4918766;29;20048;-63
2022/03/31 01:36:37;;;;;;;3.50;1.70;;;;;;;-1.06;45.88;98719.69;4918185;29;20056;-63
2022/03/31 01:39:05;;;;;;;2.55;1.60;;;;;;;-1.03;45.70;98735.50;4919262;29;20583;-62
2022/03/31 01:41:32;;;;;;;4.97;2.22;;;;;;;-1.04;45.52;98728.38;4918088;29;20068;-63
2022/03/31 01:43:59;;;;;;;4.88;1.92;;;;;;;-1.07;46.05;98728.16;4918937;29;20563;-63
2022/03/31 01:46:26;;;;;;;4.30;1.98;;;;;;;-1.05;46.34;98728.66;4918249;29;20051;-62
2022/03/31 01:48:53;;;;;;;6.78;2.10;;;;;;;-1.05;46.25;98725.94;4918759;29;20056;-63
2022/03/31 01:51:22;;;;;;;4.82;2.05;;;;;;;-1.07;46.43;98728.16;4918321;29;20087;-63
2022/03/31 01:53:49;;;;;;;4.28;1.98;;;;;;;-1.09;46.28;98735.78;4915248;29;20056;-63
2022/03/31 01:56:16;;;;;;;6.60;2.33;;;;;;;-1.08;46.49;98731.94;4918330;29;20048;-62
2022/03/31 01:58:43;;;;;;;4.05;2.08;;;;;;;-1.09;46.94;98731.16;4918832;29;20415;-62
2022/03/31 02:01:10;;;;;;;5.63;2.03;;;;;;;-1.15;47.26;98742.34;4918598;29;20047;-63
2022/03/31 02:03:37;;;;;;;5.90;2.38;;;;;;;-1.27;47.25;98739.09;4902870;29;20110;-63
2022/03/31 02:06:04;;;;;;;7.55;2.38;;;;;;;-1.29;48.07;98749.47;4918790;29;20551;-62
2022/03/31 02:08:31;;;;;;;19.50;2.13;;;;;;;-1.33;48.02;98745.66;4918467;29;20055;-63
2022/03/31 02:10:58;;;;;;;6.18;2.33;;;;;;;-1.33;47.87;98751.13;4918370;29;20063;-63
2022/03/31 02:13:25;;;;;;;6.88;2.40;;;;;;;-1.36;48.21;98746.22;4917974;29;20052;-62
2022/03/31 02:15:54;;;;;;;4.43;2.15;;;;;;;-1.40;48.29;98748.66;4918225;29;20469;-63
2022/03/31 02:18:21;;;;;;;7.68;2.17;;;;;;;-1.40;48.83;98747.84;4917793;29;20495;-63
2022/03/31 02:20:49;;;;;;;4.45;2.15;;;;;;;-1.43;48.70;98740.19;4918376;29;20055;-63
2022/03/31 02:23:16;;;;;;;4.68;2.35;;;;;;;-1.44;48.71;98749.47;4917888;29;20151;-62
2022/03/31 02:25:43;;;;;;;5.70;2.50;;;;;;;-1.41;49.00;98754.41;4918073;29;20044;-62
2022/03/31 02:28:12;;;;;;;8.73;2.40;;;;;;;-1.39;48.42;98752.22;4917612;29;20052;-63
2022/03/31 02:30:39;;;;;;;3.72;2.13;;;;;;;-1.39;48.63;98757.69;4914821;29;20094;-62
2022/03/31 02:33:06;;;;;;;6.28;2.33;;;;;;;-1.39;48.73;98753.00;4917371;29;20056;-61
2022/03/31 02:35:33;;;;;;;5.50;2.20;;;;;;;-1.40;49.08;98756.00;4917518;29;20060;-63
2022/03/31 02:38:00;;;;;;;5.05;2.03;;;;;;;-1.46;49.15;98757.94;4900603;29;20051;-62
2022/03/31 02:40:27;;;;;;;3.50;1.70;;;;;;;-1.59;50.70;98757.69;4902774;29;20143;-62
2022/03/31 02:42:55;;;;;;;4.20;1.92;;;;;;;-1.72;50.89;98759.03;4917580;29;20059;-62
2022/03/31 02:45:22;;;;;;;3.78;1.83;;;;;;;-1.78;50.94;98756.59;4917396;29;20058;-62
2022/03/31 02:47:48;;;;;;;3.78;1.85;;;;;;;-1.85;51.24;98756.88;4917580;29;20056;-63
2022/03/31 02:50:17;;;;;;;2.67;1.60;;;;;;;-1.83;51.57;98758.22;4917070;29;20464;-64
2022/03/31 02:55:31;;;;;;;3.60;1.75;;;;;;;-1.75;51.61;98770.50;4917071;29;20565;-62
2022/03/31 02:58:02;;;;;;;3.13;2.03;;;;;;;-1.77;51.62;98761.78;4917615;29;20111;-64
2022/03/31 03:00:32;;;;;;;10.02;2.22;;;;;;;-1.78;52.08;98759.34;4917439;29;20511;-63
2022/03/31 03:03:02;;;;;;;4.15;1.77;;;;;;;-1.76;51.38;98759.84;4917422;29;20067;-62
2022/03/31 03:05:30;;;;;;;3.35;1.95;;;;;;;-1.73;51.83;98768.31;4900587;29;20116;-64
2022/03/31 03:07:57;;;;;;;3.35;1.85;;;;;;;-1.76;51.62;98768.88;4917170;29;20062;-62
2022/03/31 03:10:24;;;;;;;4.72;1.90;;;;;;;-1.74;52.23;98772.16;4902064;29;20079;-63
2022/03/31 03:12:51;;;;;;;5.60;2.08;;;;;;;-1.67;52.15;98785.47;4917303;29;20048;-62
2022/03/31 03:15:18;;;;;;;5.38;2.03;;;;;;;-1.67;52.16;98777.31;4908724;29;20102;-61
2022/03/31 03:17:47;;;;;;;3.97;1.83;;;;;;;-1.65;52.52;98778.69;4917679;29;20062;-61
2022/03/31 03:20:15;;;;;;;4.22;1.90;;;;;;;-1.64;52.49;98779.47;4916788;29;20135;-61
2022/03/31 03:22:51;;;;;;;8.05;2.22;;;;;;;-1.61;52.26;98784.38;4900946;29;20075;-61
2022/03/31 03:25:19;;;;;;;5.25;1.98;;;;;;;-1.59;52.46;98780.31;4916650;29;20086;-62
2022/03/31 03:27:48;;;;;;;6.63;1.85;;;;;;;-1.55;52.26;98784.13;4916936;29;20058;-62
2022/03/31 03:30:18;;;;;;;3.58;1.92;;;;;;;-1.52;52.49;98780.03;4916859;29;20048;-62
2022/03/31 03:32:45;;;;;;;3.42;2.13;;;;;;;-1.48;52.54;98776.47;4917167;29;20066;-62
2022/03/31 03:35:14;;;;;;;4.43;2.33;;;;;;;-1.39;52.46;98763.91;4916145;29;20096;-62
2022/03/31 03:37:43;;;;;;;3.30;1.85;;;;;;;-1.32;52.32;98763.66;4897691;29;20063;-62
2022/03/31 03:40:12;;;;;;;3.70;1.60;;;;;;;-1.30;52.86;98762.28;4912754;29;20052;-62
2022/03/31 03:42:40;;;;;;;3.00;1.60;;;;;;;-1.25;52.94;98769.66;4916364;29;20436;-61
2022/03/31 03:45:10;;;;;;;5.28;1.92;;;;;;;-1.17;52.83;98778.09;4916348;29;20423;-60
2022/03/31 03:47:37;;;;;;;4.15;2.08;;;;;;;-1.19;52.91;98783.00;4916382;29;20082;-61
2022/03/31 03:50:06;;;;;;;3.35;1.75;;;;;;;-1.14;53.29;98783.00;4916167;29;20143;-61
2022/03/31 03:52:33;;;;;;;3.20;1.52;;;;;;;-1.08;53.16;98790.09;4913138;29;20503;-61
2022/03/31 03:55:00;;;;;;;6.35;2.30;;;;;;;-1.01;53.30;98787.88;4916199;29;20143;-62
2022/03/31 03:57:29;;;;;;;3.00;1.67;;;;;;;-0.94;53.11;98782.13;4901315;29;20555;-62
2022/03/31 03:59:56;;;;;;;3.15;1.80;;;;;;;-0.86;53.21;98795.22;4916180;29;20086;-62
2022/03/31 04:02:23;;;;;;;3.78;1.80;;;;;;;-0.77;53.14;98790.84;4916462;29;20144;-61
2022/03/31 04:04:50;;;;;;;6.90;1.88;;;;;;;-0.67;53.46;98788.06;4900862;29;20051;-62
2022/03/31 04:07:17;;;;;;;3.47;1.95;;;;;;;-0.60;53.58;98796.75;4901397;29;20504;-61
2022/03/31 04:09:44;;;;;;;5.60;2.00;;;;;;;-0.54;53.43;98796.47;4916338;29;20052;-62
2022/03/31 04:12:11;;;;;;;3.63;2.00;;;;;;;-0.47;53.27;98794.25;4915549;29;20056;-61
2022/03/31 04:14:39;;;;;;;4.25;1.92;;;;;;;-0.36;53.16;98790.38;4915961;29;20056;-61
2022/03/31 04:17:06;;;;;;;4.38;1.90;;;;;;;-0.25;52.96;98793.88;4915820;29;20082;-62
2022/03/31 04:19:33;;;;;;;4.40;2.08;;;;;;;-0.16;53.34;98794.94;4916149;29;20052;-62
2022/03/31 04:22:00;;;;;;;9.05;2.10;;;;;;;-0.13;53.47;98800.66;4915590;29;20056;-62
2022/03/31 04:24:27;;;;;;;3.80;1.88;;;;;;;-0.03;53.20;98800.59;4916458;29;20056;-62
2022/03/31 04:26:54;;;;;;;3.22;1.88;;;;;;;0.10;52.95;98793.69;4915499;29;20062;-65
2022/03/31 04:29:21;;;;;;;3.72;1.63;;;;;;;0.19;53.30;98797.44;4915962;29;20063;-66
2022/03/31 04:31:49;;;;;;;10.45;1.80;;;;;;;0.27;52.90;98794.13;4915542;29;20056;-66
2022/03/31 04:34:18;;;;;;;8.02;1.80;;;;;;;0.32;53.29;98807.75;4916017;29;20048;-65
2022/03/31 04:36:48;;;;;;;12.93;1.75;;;;;;;0.35;53.35;98798.97;4915827;29;20131;-66
2022/03/31 04:39:15;;;;;;;7.30;1.67;;;;;;;0.38;53.39;98801.13;4914960;29;20052;-66
2022/03/31 04:41:43;;;;;;;3.70;1.98;;;;;;;0.40;53.41;98803.59;4915460;29;20142;-64
2022/03/31 04:44:11;;;;;;;3.05;1.70;;;;;;;0.59;53.13;98801.81;4898053;29;20064;-65
2022/03/31 04:46:38;;;;;;;4.43;1.55;;;;;;;0.79;52.96;98807.91;4915944;29;20104;-66
2022/03/31 04:49:06;;;;;;;2.83;1.90;;;;;;;1.00;52.26;98809.38;4901011;29;20104;-66
2022/03/31 04:51:33;;;;;;;13.23;2.05;;;;;;;1.15;52.48;98811.94;4899995;29;20131;-66
2022/03/31 04:54:00;;;;;;;2.92;1.67;;;;;;;1.24;52.34;98810.22;4915119;29;20135;-66
2022/03/31 04:56:27;;;;;;;3.30;1.80;;;;;;;1.35;52.38;98811.75;4915724;29;20108;-64
2022/03/31 04:58:54;;;;;;;4.03;2.00;;;;;;;1.56;52.19;98810.41;4915453;29;20056;-65
2022/03/31 05:01:23;;;;;;;4.82;2.00;;;;;;;1.71;51.77;98807.47;4917005;29;20138;-66
2022/03/31 05:03:50;;;;;;;2.40;1.40;;;;;;;1.80;51.47;98808.47;4919394;29;20071;-65
2022/03/31 05:06:17;;;;;;;8.15;1.73;;;;;;;1.78;51.63;98804.38;4919511;29;20047;-66
2022/03/31 05:08:44;;;;;;;3.13;1.55;;;;;;;1.79;51.44;98812.31;4919166;29;20530;-66
2022/03/31 05:11:11;;;;;;;4.05;1.90;;;;;;;1.67;51.95;98817.41;4919339;29;20070;-67
2022/03/31 05:13:39;;;;;;;3.35;2.00;;;;;;;1.73;52.06;98824.47;4919081;29;20056;-63
2022/03/31 05:16:06;;;;;;;7.32;2.03;;;;;;;1.92;51.86;98820.94;4919553;29;20104;-63
2022/03/31 05:18:33;;;;;;;5.50;1.88;;;;;;;2.10;51.33;98829.16;4920044;29;20048;-62
2022/03/31 05:21:00;;;;;;;3.13;1.88;;;;;;;2.16;51.17;98821.69;4918989;29;20147;-62
2022/03/31 05:23:27;;;;;;;4.70;2.10;;;;;;;2.27;51.02;98825.91;4919090;29;20056;-62
2022/03/31 05:25:54;;;;;;;6.18;2.17;;;;;;;2.17;51.69;98826.91;4918633;29;20119;-62
2022/03/31 05:28:21;;;;;;;2.95;1.63;;;;;;;2.02;51.41;98826.28;4917983;29;20594;-62
2022/03/31 05:30:49;;;;;;;4.93;2.30;;;;;;;2.00;51.64;98828.47;4916873;29;20048;-62
2022/03/31 05:33:17;;;;;;;3.97;2.10;;;;;;;2.00;51.94;98818.34;4918550;29;20083;-62
2022/03/31 05:35:44;;;;;;;9.93;1.85;;;;;;;2.01;52.03;98814.47;4916389;29;20056;-62
2022/03/31 05:38:10;;;;;;;6.30;2.25;;;;;;;2.26;51.35;98821.53;4918005;29;20063;-63
2022/03/31 05:40:38;;;;;;;7.93;2.33;;;;;;;2.53;50.58;98821.69;4902350;29;20155;-62
2022/03/31 05:43:05;;;;;;;3.78;1.60;;;;;;;2.62;50.27;98825.38;4917769;29;20518;-62
2022/03/31 05:45:33;;;;;;;5.85;2.33;;;;;;;2.53;50.48;98827.19;4917466;29;20115;-62
2022/03/31 05:48:00;;;;;;;8.10;1.88;;;;;;;2.40;50.50;98830.69;4917494;29;20056;-62
2022/03/31 05:50:27;;;;;;;4.00;1.88;;;;;;;2.69;50.77;98836.81;4917979;29;20052;-62
2022/03/31 05:52:54;;;;;;;3.83;1.92;;;;;;;3.05;49.92;98835.13;4917415;29;20092;-62
2022/03/31 05:55:22;;;;;;;10.15;2.10;;;;;;;3.17;49.67;98838.22;4901594;29;20062;-63
2022/03/31 05:57:49;;;;;;;8.55;2.45;;;;;;;3.26;49.37;98841.88;4917161;29;20107;-62
2022/03/31 06:00:18;;;;;;;6.05;2.22;;;;;;;3.27;49.16;98843.50;4917477;29;20060;-64
2022/03/31 06:02:46;;;;;;;4.10;2.10;;;;;;;3.20;49.43;98848.59;4917685;29;20060;-62
2022/03/31 06:05:16;;;;;;;4.88;2.35;;;;;;;3.44;48.67;98849.25;4917032;29;20048;-62
2022/03/31 06:07:43;;;;;;;6.50;2.78;;;;;;;3.50;48.78;98856.28;4917213;29;20078;-62
2022/03/31 06:10:10;;;;;;;112.35;35.13;;;;;;;3.41;48.55;98858.09;4918056;29;20168;-63
2022/03/31 06:12:38;;;;;;;6.35;3.35;;;;;;;3.43;48.85;98864.91;4916710;29;20542;-63
2022/03/31 06:15:06;;;;;;;7.68;2.88;;;;;;;3.49;48.42;98863.72;4917208;29;20135;-62
2022/03/31 06:17:34;;;;;;;8.18;2.78;;;;;;;3.58;48.48;98877.56;4915668;29;20450;-63
2022/03/31 06:20:02;;;;;;;6.82;2.42;;;;;;;3.36;48.77;98874.69;4916304;29;20575;-62
2022/03/31 06:22:29;;;;;;;4.20;2.00;;;;;;;3.25;48.58;98873.22;4916134;29;20464;-63
2022/03/31 06:24:56;;;;;;;10.98;2.58;;;;;;;3.62;48.10;98878.59;4917138;29;20056;-62
2022/03/31 06:27:23;;;;;;;10.00;2.50;;;;;;;3.91;47.07;98861.81;4917131;29;20048;-63
2022/03/31 06:29:52;;;;;;;10.05;2.65;;;;;;;4.63;46.12;98867.13;4917727;29;20468;-62
2022/03/31 06:32:19;;;;;;;265.58;93.80;;;;;;;5.20;44.52;98860.75;4916701;29;20052;-63
2022/03/31 06:34:46;;;;;;;12.95;7.00;;;;;;;5.27;44.46;98861.13;4917291;29;20115;-63
2022/03/31 06:37:13;;;;;;;8.93;3.40;;;;;;;5.03;44.24;98862.56;4917413;29;20476;-62
2022/03/31 06:39:42;;;;;;;6.22;3.00;;;;;;;4.86;44.98;98866.00;4916888;29;20103;-65
2022/03/31 06:42:10;;;;;;;5.35;2.85;;;;;;;5.46;44.17;98863.66;4916282;29;20091;-62
2022/03/31 06:44:37;;;;;;;5.05;2.63;;;;;;;6.22;43.37;98867.94;4917221;29;20503;-63
2022/03/31 06:47:05;;;;;;;7.13;3.20;;;;;;;6.64;41.71;98881.84;4916101;29;20048;-64
2022/03/31 06:49:34;;;;;;;9.65;2.80;;;;;;;6.42;42.09;98865.38;4916382;29;20040;-63
2022/03/31 06:52:01;;;;;;;7.13;2.80;;;;;;;6.54;42.64;98862.00;4915254;29;20052;-62
2022/03/31 06:54:30;;;;;;;4.63;2.22;;;;;;;6.60;42.01;98855.19;4915972;29;20442;-63
2022/03/31 06:56:57;;;;;;;12.00;2.97;;;;;;;6.57;42.04;98855.84;4917026;29;20052;-63
2022/03/31 06:59:24;;;;;;;8.68;2.72;;;;;;;6.55;42.68;98852.56;4899023;29;20139;-62
2022/03/31 07:01:51;;;;;;;13.48;3.00;;;;;;;6.48;42.10;98858.56;4915807;29;20598;-63
2022/03/31 07:04:18;;;;;;;7.00;2.90;;;;;;;6.44;42.61;98854.81;4916600;29;20103;-63
2022/03/31 07:06:45;;;;;;;9.32;2.63;;;;;;;6.42;41.96;98850.78;4915374;29;20044;-62
2022/03/31 07:09:12;;;;;;;7.90;2.30;;;;;;;6.17;42.42;98854.25;4915363;29;20058;-62
2022/03/31 07:11:39;;;;;;;7.53;3.17;;;;;;;6.19;41.79;98850.03;4900725;29;20173;-63
2022/03/31 07:14:06;;;;;;;6.30;3.15;;;;;;;6.05;41.99;98852.13;4915612;29;20551;-62
2022/03/31 07:16:34;;;;;;;6.10;3.28;;;;;;;5.80;42.78;98846.47;4916029;29;20135;-62
2022/03/31 07:19:03;;;;;;;5.47;2.75;;;;;;;5.94;42.46;98849.97;4915502;29;20539;-63
2022/03/31 07:21:32;;;;;;;14.73;3.28;;;;;;;5.84;41.98;98859.34;4916437;29;20048;-62
2022/03/31 07:24:00;;;;;;;6.20;3.20;;;;;;;5.70;42.95;98847.56;4903184;29;20048;-64
2022/03/31 07:26:29;;;;;;;13.52;3.60;;;;;;;5.81;42.56;98853.63;4915965;29;20044;-63
2022/03/31 07:28:56;;;;;;;8.75;3.03;;;;;;;5.77;42.34;98852.63;4915790;29;20526;-63
2022/03/31 07:31:25;;;;;;;6.90;3.75;;;;;;;5.72;42.41;98856.34;4915575;29;20056;-62
2022/03/31 07:33:52;;;;;;;8.02;3.33;;;;;;;5.54;42.10;98862.91;4916261;29;20059;-64
2022/03/31 07:36:19;;;;;;;11.20;3.75;;;;;;;5.28;42.32;98868.28;4915663;29;20568;-62
2022/03/31 07:38:46;;;;;;;6.10;3.25;;;;;;;5.21;42.59;98870.66;4916415;29;20123;-64
2022/03/31 07:41:15;;;;;;;8.50;3.88;;;;;;;5.13;42.58;98871.41;4915916;29;20048;-63
2022/03/31 07:43:43;;;;;;;6.15;3.40;;;;;;;5.04;42.31;98867.75;4916554;29;20075;-62
2022/03/31 07:46:10;;;;;;;8.20;3.28;;;;;;;4.98;42.81;98874.53;4915696;29;20460;-62
2022/03/31 07:48:38;;;;;;;8.48;3.75;;;;;;;4.91;43.32;98873.31;4915509;29;20055;-63
2022/03/31 07:51:05;;;;;;;10.48;3.53;;;;;;;5.07;42.64;98878.16;4914661;29;20143;-62
2022/03/31 07:53:33;;;;;;;8.50;2.38;;;;;;;4.91;42.82;98882.41;4914589;29;20546;-63
2022/03/31 07:56:05;;;;;;;7.90;3.42;;;;;;;4.53;44.14;98883.84;4914063;29;20528;-62
2022/03/31 07:58:32;;;;;;;7.65;3.05;;;;;;;4.47;43.95;98868.56;4915571;29;20062;-62
2022/03/31 08:00:59;;;;;;;4.95;2.65;;;;;;;4.57;44.09;98881.31;4914956;29;20067;-62
2022/03/31 08:03:27;;;;;;;5.68;2.35;;;;;;;4.58;43.61;98883.75;4915211;29;20051;-62
2022/03/31 08:05:54;;;;;;;9.70;2.90;;;;;;;4.53;43.79;98872.84;4915483;29;20051;-62
2022/03/31 08:08:21;;;;;;;8.57;2.95;;;;;;;4.33;44.52;98895.31;4915526;29;20527;-63
2022/03/31 08:10:50;;;;;;;12.70;2.97;;;;;;;4.23;44.78;98883.72;4916040;29;20443;-63
2022/03/31 08:13:28;;;;;;;9.77;2.75;;;;;;;4.21;45.01;98881.28;4915474;29;20108;-62
2022/03/31 08:15:58;;;;;;;9.90;2.90;;;;;;;4.22;45.03;98873.81;4916244;29;20048;-62
2022/03/31 08:18:32;;;;;;;6.03;2.50;;;;;;;4.32;44.79;98879.91;4915060;29;20103;-62
2022/03/31 08:20:59;;;;;;;5.55;2.70;;;;;;;4.50;44.70;98881.72;4915203;29;20066;-62
2022/03/31 08:23:27;;;;;;;11.50;3.35;;;;;;;4.49;44.74;98871.84;4914872;29;20111;-62
2022/03/31 08:25:54;;;;;;;7.03;2.75;;;;;;;4.57;44.54;98862.84;4915848;29;20056;-64
2022/03/31 08:28:21;;;;;;;6.95;3.13;;;;;;;4.53;44.96;98861.81;4914718;29;20134;-63
2022/03/31 08:30:49;;;;;;;9.15;3.40;;;;;;;4.60;44.59;98870.50;4914686;29;20516;-63
2022/03/31 08:33:16;;;;;;;8.57;3.05;;;;;;;4.54;45.06;98865.41;4914533;29;20056;-61
2022/03/31 08:35:44;;;;;;;10.45;2.60;;;;;;;4.62;44.97;98864.66;4908746;29;20048;-63
2022/03/31 08:38:11;;;;;;;5.72;2.75;;;;;;;4.79;44.37;98860.13;4914289;29;20058;-62
2022/03/31 08:40:45;;;;;;;6.13;2.58;;;;;;;4.84;44.38;98862.75;4914640;29;20063;-62
2022/03/31 08:43:12;;;;;;;5.53;2.55;;;;;;;4.90;44.00;98847.72;4914547;29;20128;-62
2022/03/31 08:45:41;;;;;;;8.63;2.35;;;;;;;4.99;44.17;98848.59;4915864;29;20111;-63
2022/03/31 08:48:08;;;;;;;6.78;2.30;;;;;;;4.93;44.42;98838.00;4913563;29;20067;-64
2022/03/31 08:50:37;;;;;;;5.35;2.15;;;;;;;5.27;44.15;98844.56;4915530;29;20086;-63
2022/03/31 08:53:04;;;;;;;12.32;2.42;;;;;;;5.75;43.09;98836.41;4915163;29;20056;-62
2022/03/31 08:55:31;;;;;;;5.00;2.63;;;;;;;6.03;42.70;98834.25;4915721;29;20087;-62
2022/03/31 08:57:59;;;;;;;7.10;2.30;;;;;;;5.94;43.48;98847.19;4914186;29;20140;-65
2022/03/31 09:00:26;;;;;;;7.97;2.70;;;;;;;5.93;43.14;98840.06;4914007;29;20138;-61
2022/03/31 09:02:55;;;;;;;4.90;2.00;;;;;;;5.82;43.52;98839.53;4911591;29;20140;-64
2022/03/31 09:05:23;;;;;;;6.45;2.85;;;;;;;5.66;43.33;98841.88;4914590;29;20048;-70
2022/03/31 09:07:59;;;;;;;4.80;2.40;;;;;;;5.69;43.01;98835.72;4914321;29;20054;-65
2022/03/31 09:10:36;;;;;;;7.32;2.80;;;;;;;5.52;43.79;98840.34;4914007;29;20100;-69
2022/03/31 09:13:15;;;;;;;11.32;3.00;;;;;;;5.23;43.73;98837.25;4915195;29;20541;-67
2022/03/31 09:15:48;;;;;;;7.00;2.85;;;;;;;5.24;43.98;98828.66;4899130;29;20052;-70
2022/03/31 09:18:17;;;;;;;6.28;3.30;;;;;;;5.29;43.75;98831.28;4913563;29;20427;-68
2022/03/31 09:20:46;;;;;;;9.30;3.42;;;;;;;5.11;45.00;98829.56;4916970;29;20051;-68
2022/03/31 09:23:16;;;;;;;6.70;3.10;;;;;;;5.10;44.60;98827.91;4882968;29;20056;-68
2022/03/31 09:25:43;;;;;;;9.43;3.72;;;;;;;5.05;44.92;98830.81;4913404;29;20139;-61
2022/03/31 09:28:16;;;;;;;11.57;3.28;;;;;;;5.23;45.35;98820.69;4913264;29;20458;-63
2022/03/31 09:30:54;;;;;;;7.97;3.45;;;;;;;5.58;45.02;98826.09;4914603;29;20500;-65
2022/03/31 09:33:34;;;;;;;9.23;4.00;;;;;;;5.92;44.15;98813.59;4914308;29;20056;-65
2022/03/31 09:36:19;;;;;;;5.65;3.15;;;;;;;6.23;43.82;98822.59;4913625;29;20066;-65
2022/03/31 09:39:00;;;;;;;9.35;3.60;;;;;;;6.13;44.00;98811.88;4913456;29;20148;-65
2022/03/31 09:41:32;;;;;;;6.00;3.50;;;;;;;5.93;44.38;98809.69;4910804;29;20074;-67
2022/03/31 09:44:21;;;;;;;11.45;4.07;;;;;;;5.65;45.20;98809.91;4913783;29;20056;-63
2022/03/31 09:46:52;;;;;;;9.43;4.07;;;;;;;5.43;46.22;98815.47;4912271;29;20099;-65
2022/03/31 09:49:25;;;;;;;9.25;3.83;;;;;;;5.19;45.97;98815.03;4917533;29;20051;-65
2022/03/31 09:52:01;;;;;;;10.43;4.68;;;;;;;4.83;47.39;98806.00;4913494;29;20056;-65
2022/03/31 09:54:31;;;;;;;7.95;3.58;;;;;;;4.74;47.37;98813.38;4914390;29;20048;-63
2022/03/31 09:57:01;;;;;;;8.13;3.85;;;;;;;4.72;47.58;98814.84;4917149;29;20062;-63
2022/03/31 09:59:33;;;;;;;8.30;4.30;;;;;;;4.76;47.45;98813.06;4916351;29;20094;-62
2022/03/31 10:02:02;;;;;;;10.70;4.53;;;;;;;4.57;48.33;98810.53;4917593;29;20530;-63
2022/03/31 10:04:31;;;;;;;8.98;4.20;;;;;;;4.37;49.23;98813.72;4912798;29;20418;-63
2022/03/31 10:06:59;;;;;;;8.32;4.05;;;;;;;4.29;49.01;98805.41;4912294;29;20044;-62
2022/03/31 10:09:26;;;;;;;8.95;4.05;;;;;;;4.41;49.19;98817.47;4916959;29;20048;-63
2022/03/31 10:12:11;;;;;;;8.77;4.07;;;;;;;4.28;50.03;98809.25;4916739;29;20086;-62
2022/03/31 10:14:56;;;;;;;10.43;4.07;;;;;;;4.05;50.11;98802.88;4915970;29;20047;-64
2022/03/31 10:17:28;;;;;;;7.07;3.72;;;;;;;3.86;51.20;98806.88;4915840;29;20464;-64
2022/03/31 10:20:09;;;;;;;7.53;4.07;;;;;;;3.74;51.70;98804.66;4914838;29;20051;-63
2022/03/31 10:25:34;;;;;;;9.85;4.10;;;;;;;3.77;51.50;98798.53;4918162;29;20497;-63
2022/03/31 10:28:18;;;;;;;12.80;4.43;;;;;;;3.89;51.41;98801.59;4917457;29;20071;-64
2022/03/31 10:30:59;;;;;;;11.85;4.28;;;;;;;3.83;51.60;98808.31;4917573;29;20079;-63
2022/03/31 10:33:38;;;;;;;7.40;4.38;;;;;;;3.78;51.56;98802.91;4916306;29;20060;-63
2022/03/31 10:36:12;;;;;;;18.58;8.00;;;;;;;3.69;52.41;98808.34;4914054;29;20086;-62
2022/03/31 10:38:52;;;;;;;8.98;4.70;;;;;;;3.68;52.52;98803.94;4913224;29;20056;-63
2022/03/31 10:41:35;;;;;;;8.40;4.35;;;;;;;3.71;52.68;98799.78;4913092;29;20464;-62
2022/03/31 10:44:23;;;;;;;7.32;4.40;;;;;;;3.67;52.73;98804.22;4911821;29;20066;-63
2022/03/31 10:47:09;;;;;;;6.25;3.65;;;;;;;3.76;52.58;98805.97;4910686;29;20048;-63
2022/03/31 10:49:37;;;;;;;11.63;4.35;;;;;;;3.90;52.40;98797.72;4910857;29;20131;-64
2022/03/31 10:52:19;;;;;;;9.88;3.85;;;;;;;4.03;52.15;98794.16;4911164;29;20079;-64
2022/03/31 10:54:46;;;;;;;9.25;4.65;;;;;;;3.98;52.46;98797.00;4912272;29;20059;-64
2022/03/31 10:57:17;;;;;;;7.45;3.90;;;;;;;3.90;52.54;98789.47;4915324;29;20052;-63
2022/03/31 10:59:46;;;;;;;;;;;;;;;3.77;52.75;98798.53;4916021;29;20048;-63
2022/03/31 11:02:18;;;;;;;9.35;3.55;;;;;;;3.79;52.71;98788.03;4916469;29;19931;-63
2022/03/31 11:04:52;;;;;;;9.60;3.67;;;;;;;3.88;52.38;98791.72;4915236;29;20095;-63
2022/03/31 11:07:22;;;;;;;138.23;46.65;;;;;;;3.82;52.93;98789.38;4897429;29;20411;-64
2022/03/31 11:10:04;;;;;;;11.40;5.47;;;;;;;3.57;53.20;98790.69;4912681;29;20518;-63
2022/03/31 11:12:33;;;;;;;8.75;3.65;;;;;;;3.46;53.30;98790.09;4911943;29;20060;-63
2022/03/31 11:15:07;;;;;;;6.20;3.15;;;;;;;3.41;53.45;98783.88;4911091;29;20048;-63
2022/03/31 11:17:35;;;;;;;6.18;3.30;;;;;;;3.41;53.03;98781.13;4911762;29;20202;-66
2022/03/31 11:20:23;;;;;;;6.57;3.20;;;;;;;3.39;53.47;98775.94;4910564;29;20503;-62
2022/03/31 11:22:53;;;;;;;7.32;3.53;;;;;;;3.36;53.67;98775.72;4913813;29;20047;-63
2022/03/31 11:25:21;;;;;;;5.75;3.28;;;;;;;3.35;53.86;98774.91;4916676;29;20383;-63
2022/03/31 11:27:50;;;;;;;6.40;3.70;;;;;;;3.30;53.96;98772.28;4916887;29;20052;-65
2022/03/31 11:30:20;;;;;;;7.18;3.65;;;;;;;3.29;54.44;98775.31;4916668;29;20083;-63
2022/03/31 11:32:52;;;;;;;6.32;3.22;;;;;;;3.20;54.11;98775.19;4917012;29;20142;-64
2022/03/31 11:35:21;;;;;;;6.97;3.30;;;;;;;3.13;54.62;98773.97;4916352;29;20073;-63
2022/03/31 11:37:49;;;;;;;21.98;7.32;;;;;;;3.05;54.92;98769.19;4896990;29;20631;-63
2022/03/31 11:40:23;;;;;;;8.40;3.65;;;;;;;3.11;54.85;98773.47;4893808;29;20096;-62
2022/03/31 11:42:52;;;;;;;7.07;3.22;;;;;;;3.10;54.70;98767.16;4908848;29;20067;-63
2022/03/31 11:45:25;;;;;;;12.45;3.88;;;;;;;3.04;55.53;98773.03;4911745;29;20062;-63
2022/03/31 11:47:57;;;;;;;4.97;3.05;;;;;;;3.02;55.25;98780.78;4913684;29;20052;-65
2022/03/31 11:50:25;;;;;;;6.22;3.40;;;;;;;2.97;54.76;98773.44;4913362;29;20415;-67
2022/03/31 11:52:53;;;;;;;7.32;3.50;;;;;;;2.96;54.99;98771.78;4884208;29;20056;-66
2022/03/31 11:55:21;;;;;;;6.85;3.25;;;;;;;2.96;55.03;98769.03;4915366;29;20058;-65
2022/03/31 11:57:56;;;;;;;6.93;2.90;;;;;;;2.98;55.22;98763.25;4913681;29;20462;-63